createdAt,value
2018-05-10T00:00:44.145Z,0.00
2018-05-10T00:01:44.143Z,0.00
2018-05-10T00:02:44.146Z,0.00
2018-05-10T00:03:44.148Z,0.00
2018-05-10T00:04:44.143Z,0.00
2018-05-10T00:05:44.145Z,0.00
2018-05-10T00:06:44.140Z,0.00
2018-05-10T00:07:44.170Z,0.00
2018-05-10T00:08:44.141Z,0.00
2018-05-10T00:09:44.139Z,0.00
2018-05-10T00:10:44.139Z,0.00
2018-05-10T00:11:44.138Z,0.00
2018-05-10T00:12:44.139Z,0.00
2018-05-10T00:13:44.138Z,0.00
2018-05-10T00:14:44.136Z,0.00
2018-05-10T00:15:44.137Z,0.00
2018-05-10T00:16:44.137Z,0.00
2018-05-10T00:17:44.136Z,0.00
2018-05-10T00:18:44.136Z,0.00
2018-05-10T00:19:44.135Z,0.00
2018-05-10T00:20:44.138Z,0.00
2018-05-10T00:22:44.134Z,0.00
2018-05-10T00:23:44.134Z,0.00
2018-05-10T00:24:44.140Z,0.00
2018-05-10T00:25:44.132Z,0.00
2018-05-10T00:26:44.131Z,0.00
2018-05-10T00:27:44.132Z,0.00
2018-05-10T00:28:44.132Z,0.00
2018-05-10T00:29:44.130Z,0.00
2018-05-10T00:30:44.129Z,0.00
2018-05-10T00:31:44.129Z,0.00
2018-05-10T00:32:44.128Z,0.00
2018-05-10T00:33:44.128Z,0.00
2018-05-10T00:34:44.129Z,0.00
2018-05-10T00:35:44.356Z,0.00
2018-05-10T00:36:44.130Z,0.00
2018-05-10T00:37:44.126Z,0.00
2018-05-10T00:38:44.125Z,0.00
2018-05-10T00:39:44.125Z,0.00
2018-05-10T00:40:44.124Z,0.00
2018-05-10T00:41:44.128Z,0.00
2018-05-10T00:42:44.123Z,0.00
2018-05-10T00:43:44.124Z,0.00
2018-05-10T00:44:44.123Z,0.00
2018-05-10T00:45:44.119Z,0.00
2018-05-10T00:46:44.120Z,0.00
2018-05-10T00:47:44.121Z,0.00
2018-05-10T00:48:44.119Z,0.00
2018-05-10T00:49:44.119Z,0.00
2018-05-10T00:50:44.119Z,0.00
2018-05-10T00:51:44.118Z,0.00
2018-05-10T00:52:44.119Z,0.00
2018-05-10T00:53:44.116Z,0.00
2018-05-10T00:54:44.115Z,0.00
2018-05-10T00:55:44.117Z,0.00
2018-05-10T00:56:44.116Z,0.00
2018-05-10T00:57:44.114Z,0.00
2018-05-10T00:58:44.114Z,0.00
2018-05-10T00:59:44.112Z,0.00
2018-05-10T01:00:44.113Z,0.00
2018-05-10T01:01:44.111Z,0.00
2018-05-10T01:02:44.112Z,0.00
2018-05-10T01:03:44.108Z,0.00
2018-05-10T01:04:44.173Z,0.00
2018-05-10T01:05:44.108Z,0.00
2018-05-10T01:06:44.107Z,0.00
2018-05-10T01:07:44.107Z,0.00
2018-05-10T01:08:44.406Z,0.00
2018-05-10T01:09:44.104Z,0.00
2018-05-10T01:10:44.104Z,0.00
2018-05-10T01:11:44.104Z,0.00
2018-05-10T01:12:44.109Z,0.00
2018-05-10T01:13:44.103Z,0.00
2018-05-10T01:14:44.102Z,0.00
2018-05-10T01:15:44.101Z,0.00
2018-05-10T01:16:44.102Z,0.00
2018-05-10T01:17:44.100Z,0.00
2018-05-10T01:18:44.099Z,0.00
2018-05-10T01:19:44.099Z,0.00
2018-05-10T01:20:44.098Z,0.00
2018-05-10T01:21:44.096Z,0.00
2018-05-10T01:22:44.100Z,0.00
2018-05-10T01:23:44.096Z,0.00
2018-05-10T01:24:44.096Z,0.00
2018-05-10T01:25:44.092Z,0.00
2018-05-10T01:26:44.093Z,0.00
2018-05-10T01:27:44.092Z,0.00
2018-05-10T01:28:44.092Z,0.00
2018-05-10T01:29:44.095Z,0.00
2018-05-10T01:30:44.093Z,0.00
2018-05-10T01:31:44.089Z,0.00
2018-05-10T01:32:44.088Z,0.00
2018-05-10T01:33:44.087Z,0.00
2018-05-10T01:34:44.086Z,0.00
2018-05-10T01:35:44.085Z,0.00
2018-05-10T01:36:44.085Z,0.00
2018-05-10T01:37:44.124Z,0.00
2018-05-10T01:38:44.084Z,0.00
2018-05-10T01:39:44.082Z,0.00
2018-05-10T01:40:44.083Z,0.00
2018-05-10T01:41:44.079Z,0.00
2018-05-10T01:42:44.082Z,0.00
2018-05-10T01:43:44.079Z,0.00
2018-05-10T01:44:44.080Z,0.00
2018-05-10T01:45:44.077Z,0.00
2018-05-10T01:46:44.077Z,0.00
2018-05-10T01:47:44.075Z,0.00
2018-05-10T01:48:44.075Z,0.00
2018-05-10T01:49:44.077Z,0.00
2018-05-10T01:50:44.074Z,0.00
2018-05-10T01:51:44.073Z,0.00
2018-05-10T01:52:44.072Z,0.00
2018-05-10T01:53:44.071Z,0.00
2018-05-10T01:54:44.070Z,0.00
2018-05-10T01:55:44.071Z,0.00
2018-05-10T01:56:44.068Z,0.00
2018-05-10T01:57:44.070Z,0.00
2018-05-10T01:58:44.066Z,0.00
2018-05-10T01:59:44.079Z,0.00
2018-05-10T02:00:44.065Z,0.00
2018-05-10T02:01:44.063Z,0.00
2018-05-10T02:02:44.062Z,0.00
2018-05-10T02:03:44.061Z,0.00
2018-05-10T02:04:44.064Z,0.00
2018-05-10T02:05:44.109Z,0.00
2018-05-10T02:06:44.058Z,0.00
2018-05-10T02:07:44.059Z,0.00
2018-05-10T02:08:44.059Z,0.00
2018-05-10T02:09:44.057Z,0.00
2018-05-10T02:10:44.055Z,0.00
2018-05-10T02:11:44.055Z,0.00
2018-05-10T02:12:44.057Z,0.00
2018-05-10T02:13:44.053Z,0.00
2018-05-10T02:14:44.106Z,0.00
2018-05-10T02:15:44.051Z,0.00
2018-05-10T02:16:44.050Z,0.00
2018-05-10T02:17:44.049Z,0.00
2018-05-10T02:18:44.052Z,0.00
2018-05-10T02:19:44.049Z,0.00
2018-05-10T02:20:44.048Z,0.00
2018-05-10T02:21:44.046Z,0.00
2018-05-10T02:22:44.044Z,0.00
2018-05-10T02:23:44.059Z,0.00
2018-05-10T02:24:44.045Z,0.00
2018-05-10T02:25:44.041Z,0.00
2018-05-10T02:26:44.041Z,0.00
2018-05-10T02:27:44.040Z,0.00
2018-05-10T02:28:44.040Z,0.00
2018-05-10T02:29:44.055Z,0.00
2018-05-10T02:30:44.038Z,0.00
2018-05-10T02:31:44.037Z,0.00
2018-05-10T02:32:44.041Z,0.00
2018-05-10T02:33:44.039Z,0.00
2018-05-10T02:34:44.034Z,0.00
2018-05-10T02:35:44.033Z,0.00
2018-05-10T02:36:44.035Z,0.00
2018-05-10T02:37:44.031Z,0.00
2018-05-10T02:38:44.030Z,0.00
2018-05-10T02:39:44.035Z,0.00
2018-05-10T02:40:44.029Z,0.00
2018-05-10T02:41:44.029Z,0.00
2018-05-10T02:42:44.027Z,0.00
2018-05-10T02:43:44.026Z,0.00
2018-05-10T02:44:44.025Z,0.00
2018-05-10T02:45:44.026Z,0.00
2018-05-10T02:46:44.021Z,0.00
2018-05-10T02:47:44.021Z,0.00
2018-05-10T02:48:44.018Z,0.00
2018-05-10T02:49:44.019Z,0.00
2018-05-10T02:50:44.017Z,0.00
2018-05-10T02:51:44.017Z,0.00
2018-05-10T02:52:44.019Z,0.00
2018-05-10T02:53:44.015Z,0.00
2018-05-10T02:54:44.014Z,0.00
2018-05-10T02:55:44.014Z,0.00
2018-05-10T02:56:44.010Z,0.00
2018-05-10T02:57:44.016Z,0.00
2018-05-10T02:58:44.011Z,0.00
2018-05-10T02:59:44.007Z,0.00
2018-05-10T03:00:44.006Z,0.00
2018-05-10T03:01:44.004Z,0.00
2018-05-10T03:02:44.010Z,0.00
2018-05-10T03:03:44.001Z,0.00
2018-05-10T03:04:44.001Z,0.00
2018-05-10T03:05:43.998Z,0.00
2018-05-10T03:06:44.001Z,0.00
2018-05-10T03:07:43.996Z,0.00
2018-05-10T03:08:43.995Z,0.00
2018-05-10T03:09:43.995Z,0.00
2018-05-10T03:10:43.994Z,0.00
2018-05-10T03:11:43.992Z,0.00
2018-05-10T03:12:43.992Z,0.00
2018-05-10T03:13:43.993Z,0.00
2018-05-10T03:14:43.987Z,0.00
2018-05-10T03:15:43.987Z,0.00
2018-05-10T03:16:43.989Z,0.00
2018-05-10T03:17:43.986Z,0.00
2018-05-10T03:18:43.985Z,0.00
2018-05-10T03:19:43.989Z,0.00
2018-05-10T03:20:43.984Z,4.00
2018-05-10T03:21:43.979Z,4.00
2018-05-10T03:22:43.978Z,0.00
2018-05-10T03:23:43.979Z,4.00
2018-05-10T03:24:43.978Z,4.00
2018-05-10T03:25:43.976Z,0.00
2018-05-10T03:26:43.975Z,4.00
2018-05-10T03:27:43.976Z,4.00
2018-05-10T03:28:43.977Z,4.00
2018-05-10T03:29:43.974Z,4.00
2018-05-10T03:30:43.974Z,8.00
2018-05-10T03:31:43.972Z,4.00
2018-05-10T03:32:43.971Z,8.00
2018-05-10T03:33:43.973Z,8.00
2018-05-10T03:34:43.970Z,8.00
2018-05-10T03:35:43.968Z,8.00
2018-05-10T03:36:43.967Z,12.00
2018-05-10T03:37:43.970Z,12.00
2018-05-10T03:38:43.966Z,12.00
2018-05-10T03:39:43.966Z,12.00
2018-05-10T03:40:43.965Z,12.00
2018-05-10T03:41:43.965Z,16.00
2018-05-10T03:42:43.968Z,16.00
2018-05-10T03:43:43.963Z,16.00
2018-05-10T03:44:43.962Z,16.00
2018-05-10T03:45:43.960Z,20.00
2018-05-10T03:46:43.960Z,16.00
2018-05-10T03:47:43.959Z,20.00
2018-05-10T03:48:43.957Z,20.00
2018-05-10T03:49:43.957Z,20.00
2018-05-10T03:50:43.956Z,20.00
2018-05-10T03:51:43.956Z,20.00
2018-05-10T03:52:43.957Z,24.00
2018-05-10T03:53:43.954Z,24.00
2018-05-10T03:54:43.953Z,24.00
2018-05-10T03:55:43.953Z,24.00
2018-05-10T03:56:43.953Z,24.00
2018-05-10T03:57:43.951Z,28.00
2018-05-10T03:58:43.951Z,32.00
2018-05-10T03:59:43.951Z,36.00
2018-05-10T04:00:43.950Z,40.00
2018-05-10T04:01:43.948Z,44.00
2018-05-10T04:02:43.948Z,44.00
2018-05-10T04:03:43.949Z,44.00
2018-05-10T04:04:43.949Z,52.00
2018-05-10T04:05:43.945Z,52.00
2018-05-10T04:06:43.946Z,52.00
2018-05-10T04:07:43.945Z,60.00
2018-05-10T04:08:43.945Z,60.00
2018-05-10T04:09:43.942Z,64.00
2018-05-10T04:10:43.941Z,64.00
2018-05-10T04:11:43.943Z,68.00
2018-05-10T04:12:43.942Z,72.00
2018-05-10T04:13:43.941Z,80.00
2018-05-10T04:14:43.941Z,92.00
2018-05-10T04:15:43.940Z,108.00
2018-05-10T04:16:43.939Z,116.00
2018-05-10T04:17:43.939Z,132.00
2018-05-10T04:18:43.937Z,156.00
2018-05-10T04:19:43.938Z,180.00
2018-05-10T04:20:43.936Z,200.00
2018-05-10T04:21:43.936Z,220.00
2018-05-10T04:22:43.935Z,240.00
2018-05-10T04:23:43.935Z,256.00
2018-05-10T04:24:43.935Z,272.00
2018-05-10T04:25:43.933Z,292.00
2018-05-10T04:26:43.934Z,304.00
2018-05-10T04:27:43.934Z,316.00
2018-05-10T04:28:43.933Z,336.00
2018-05-10T04:29:43.932Z,352.00
2018-05-10T04:30:43.932Z,384.00
2018-05-10T04:31:43.930Z,412.00
2018-05-10T04:32:43.932Z,440.00
2018-05-10T04:33:43.931Z,464.00
2018-05-10T04:34:43.929Z,456.00
2018-05-10T04:35:43.990Z,452.00
2018-05-10T04:36:43.929Z,452.00
2018-05-10T04:37:43.928Z,476.00
2018-05-10T04:38:43.929Z,504.00
2018-05-10T04:39:43.926Z,540.00
2018-05-10T04:40:43.927Z,580.00
2018-05-10T04:41:43.929Z,628.00
2018-05-10T04:42:43.927Z,676.00
2018-05-10T04:43:43.926Z,704.00
2018-05-10T04:44:43.926Z,720.00
2018-05-10T04:45:43.924Z,740.00
2018-05-10T04:46:43.925Z,740.00
2018-05-10T04:47:43.925Z,732.00
2018-05-10T04:48:43.924Z,756.00
2018-05-10T04:49:43.924Z,804.00
2018-05-10T04:50:43.923Z,816.00
2018-05-10T04:51:43.923Z,848.00
2018-05-10T04:52:43.924Z,900.00
2018-05-10T04:53:43.926Z,932.00
2018-05-10T04:54:44.006Z,964.00
2018-05-10T04:55:43.923Z,976.00
2018-05-10T04:56:43.921Z,956.00
2018-05-10T04:57:43.921Z,928.00
2018-05-10T04:58:43.922Z,884.00
2018-05-10T04:59:43.921Z,940.00
2018-05-10T05:00:43.923Z,924.00
2018-05-10T05:01:43.922Z,920.00
2018-05-10T05:02:43.920Z,948.00
2018-05-10T05:03:43.921Z,1040.00
2018-05-10T05:04:43.922Z,992.00
2018-05-10T05:05:43.919Z,944.00
2018-05-10T05:06:43.920Z,716.00
2018-05-10T05:07:43.920Z,736.00
2018-05-10T05:08:44.008Z,748.00
2018-05-10T05:09:43.921Z,780.00
2018-05-10T05:10:43.919Z,812.00
2018-05-10T05:11:43.920Z,876.00
2018-05-10T05:12:43.920Z,956.00
2018-05-10T05:13:43.919Z,1164.00
2018-05-10T05:14:43.919Z,1376.00
2018-05-10T05:15:43.920Z,1336.00
2018-05-10T05:16:43.932Z,1404.00
2018-05-10T05:17:43.918Z,1536.00
2018-05-10T05:18:43.919Z,1984.00
2018-05-10T05:19:43.919Z,2160.00
2018-05-10T05:20:43.920Z,2312.00
2018-05-10T05:21:43.919Z,2152.00
2018-05-10T05:22:43.918Z,2292.00
2018-05-10T05:23:43.920Z,2404.00
2018-05-10T05:24:43.919Z,2256.00
2018-05-10T05:25:43.919Z,2492.00
2018-05-10T05:26:43.921Z,2400.00
2018-05-10T05:27:43.920Z,2268.00
2018-05-10T05:28:43.921Z,2136.00
2018-05-10T05:29:43.921Z,1960.00
2018-05-10T05:30:43.921Z,1532.00
2018-05-10T05:31:43.922Z,1444.00
2018-05-10T05:32:44.002Z,1472.00
2018-05-10T05:33:43.922Z,1508.00
2018-05-10T05:34:43.922Z,1624.00
2018-05-10T05:35:43.927Z,1692.00
2018-05-10T05:36:43.923Z,1828.00
2018-05-10T05:37:43.923Z,2016.00
2018-05-10T05:38:43.924Z,2324.00
2018-05-10T05:39:43.925Z,2332.00
2018-05-10T05:40:43.926Z,2352.00
2018-05-10T05:41:43.925Z,2344.00
2018-05-10T05:42:43.925Z,2408.00
2018-05-10T05:43:43.926Z,2508.00
2018-05-10T05:44:43.931Z,2556.00
2018-05-10T05:45:43.928Z,2592.00
2018-05-10T05:46:43.928Z,2612.00
2018-05-10T05:47:43.932Z,2660.00
2018-05-10T05:48:43.930Z,2688.00
2018-05-10T05:49:43.930Z,2716.00
2018-05-10T05:50:43.930Z,2740.00
2018-05-10T05:51:43.932Z,2756.00
2018-05-10T05:52:43.931Z,2768.00
2018-05-10T05:53:43.932Z,2776.00
2018-05-10T05:54:43.934Z,2788.00
2018-05-10T05:55:43.935Z,2788.00
2018-05-10T05:56:43.935Z,2848.00
2018-05-10T05:57:43.934Z,2948.00
2018-05-10T05:58:43.937Z,3052.00
2018-05-10T05:59:43.937Z,3148.00
2018-05-10T06:00:43.993Z,3236.00
2018-05-10T06:01:43.939Z,3332.00
2018-05-10T06:02:43.939Z,3420.00
2018-05-10T06:03:43.942Z,3444.00
2018-05-10T06:04:43.943Z,3408.00
2018-05-10T06:05:43.943Z,3380.00
2018-05-10T06:06:43.947Z,3380.00
2018-05-10T06:07:43.946Z,3392.00
2018-05-10T06:08:43.952Z,3500.00
2018-05-10T06:09:43.948Z,3612.00
2018-05-10T06:10:43.950Z,3680.00
2018-05-10T06:11:43.950Z,3740.00
2018-05-10T06:12:43.952Z,3900.00
2018-05-10T06:13:43.953Z,3768.00
2018-05-10T06:14:43.954Z,3880.00
2018-05-10T06:15:43.991Z,4224.00
2018-05-10T06:16:43.958Z,4628.00
2018-05-10T06:17:43.960Z,4784.00
2018-05-10T06:18:43.962Z,4828.00
2018-05-10T06:19:43.965Z,4868.00
2018-05-10T06:20:43.963Z,4976.00
2018-05-10T06:21:43.964Z,5044.00
2018-05-10T06:22:43.965Z,5160.00
2018-05-10T06:23:43.968Z,5184.00
2018-05-10T06:24:43.976Z,5128.00
2018-05-10T06:25:44.037Z,5084.00
2018-05-10T06:26:43.999Z,5136.00
2018-05-10T06:27:43.976Z,4760.00
2018-05-10T06:28:43.978Z,4180.00
2018-05-10T06:29:43.982Z,4252.00
2018-05-10T06:30:43.981Z,5344.00
2018-05-10T06:31:43.983Z,5404.00
2018-05-10T06:32:43.987Z,4836.00
2018-05-10T06:33:43.987Z,5044.00
2018-05-10T06:34:43.990Z,5668.00
2018-05-10T06:35:43.999Z,6000.00
2018-05-10T06:36:43.996Z,5060.00
2018-05-10T06:37:43.997Z,5212.00
2018-05-10T06:38:44.000Z,5324.00
2018-05-10T06:39:44.002Z,5596.00
2018-05-10T06:40:44.005Z,5492.00
2018-05-10T06:41:44.010Z,5208.00
2018-05-10T06:42:44.009Z,4752.00
2018-05-10T06:43:44.012Z,4572.00
2018-05-10T06:44:44.015Z,4372.00
2018-05-10T06:45:44.017Z,4556.00
2018-05-10T06:46:44.032Z,4772.00
2018-05-10T06:47:44.022Z,5620.00
2018-05-10T06:48:44.046Z,6096.00
2018-05-10T06:49:44.027Z,6216.00
2018-05-10T06:50:44.029Z,6456.00
2018-05-10T06:51:44.032Z,6272.00
2018-05-10T06:52:44.035Z,6104.00
2018-05-10T06:53:44.038Z,5880.00
2018-05-10T06:54:44.120Z,6696.00
2018-05-10T06:55:44.044Z,6664.00
2018-05-10T06:56:44.047Z,6868.00
2018-05-10T06:57:44.049Z,5748.00
2018-05-10T06:58:44.052Z,5780.00
2018-05-10T06:59:44.057Z,6248.00
2018-05-10T07:00:44.064Z,5928.00
2018-05-10T07:01:44.062Z,11592.00
2018-05-10T07:02:44.065Z,34944.00
2018-05-10T07:03:44.068Z,59552.00
2018-05-10T07:04:44.072Z,66656.00
2018-05-10T07:05:44.075Z,64256.00
2018-05-10T07:06:44.081Z,46464.00
2018-05-10T07:07:44.086Z,61504.00
2018-05-10T07:08:44.093Z,68896.00
2018-05-10T07:09:44.128Z,66752.00
2018-05-10T07:10:44.103Z,47104.00
2018-05-10T07:11:44.110Z,16672.00
2018-05-10T07:12:44.115Z,11700.00
2018-05-10T07:13:44.135Z,6984.00
2018-05-10T07:14:44.129Z,7320.00
2018-05-10T07:15:44.137Z,7176.00
2018-05-10T07:16:44.142Z,6548.00
2018-05-10T07:17:44.148Z,6784.00
2018-05-10T07:18:44.159Z,7768.00
2018-05-10T07:19:44.160Z,8884.00
2018-05-10T07:20:44.168Z,7924.00
2018-05-10T07:21:44.175Z,7584.00
2018-05-10T07:22:44.182Z,8160.00
2018-05-10T07:23:44.187Z,8280.00
2018-05-10T07:24:44.192Z,11140.00
2018-05-10T07:25:44.199Z,15392.00
2018-05-10T07:26:44.205Z,20800.00
2018-05-10T07:27:44.211Z,21344.00
2018-05-10T07:28:44.218Z,13032.00
2018-05-10T07:29:44.224Z,11924.00
2018-05-10T07:30:44.231Z,24448.00
2018-05-10T07:31:44.237Z,44832.00
2018-05-10T07:32:44.245Z,22176.00
2018-05-10T07:33:44.250Z,13728.00
2018-05-10T07:34:44.270Z,13216.00
2018-05-10T07:35:44.263Z,9476.00
2018-05-10T07:36:44.273Z,18720.00
2018-05-10T07:37:44.278Z,11964.00
2018-05-10T07:38:44.284Z,10212.00
2018-05-10T07:39:44.293Z,7332.00
2018-05-10T07:40:44.298Z,7256.00
2018-05-10T07:41:44.306Z,10620.00
2018-05-10T07:42:44.311Z,7864.00
2018-05-10T07:43:44.319Z,8648.00
2018-05-10T07:44:44.325Z,17440.00
2018-05-10T07:45:44.331Z,11796.00
2018-05-10T07:46:44.337Z,12348.00
2018-05-10T07:47:44.345Z,27552.00
2018-05-10T07:48:44.354Z,15232.00
2018-05-10T07:49:44.357Z,8396.00
2018-05-10T07:50:44.364Z,12940.00
2018-05-10T07:51:44.371Z,10524.00
2018-05-10T07:52:44.378Z,12892.00
2018-05-10T07:53:44.385Z,7036.00
2018-05-10T07:54:44.391Z,8552.00
2018-05-10T07:55:44.396Z,10736.00
2018-05-10T07:56:44.435Z,9968.00
2018-05-10T07:57:44.428Z,11000.00
2018-05-10T07:58:44.519Z,51040.00
2018-05-10T07:59:44.431Z,44064.00
2018-05-10T08:00:44.462Z,34720.00
2018-05-10T08:01:44.467Z,19872.00
2018-05-10T08:02:44.518Z,8276.00
2018-05-10T08:03:44.491Z,9516.00
2018-05-10T08:04:44.539Z,9604.00
2018-05-10T08:05:44.495Z,20160.00
2018-05-10T08:06:44.494Z,21376.00
2018-05-10T08:07:44.481Z,26752.00
2018-05-10T08:08:44.488Z,27808.00
2018-05-10T08:09:44.494Z,40800.00
2018-05-10T08:10:44.503Z,34208.00
2018-05-10T08:11:44.512Z,16480.00
2018-05-10T08:12:44.520Z,50304.00
2018-05-10T08:13:44.530Z,42752.00
2018-05-10T08:14:44.534Z,38016.00
2018-05-10T08:15:44.542Z,45824.00
2018-05-10T08:16:44.551Z,22912.00
2018-05-10T08:17:44.561Z,38016.00
2018-05-10T08:18:44.571Z,64192.00
2018-05-10T08:19:44.983Z,48160.00
2018-05-10T08:20:44.591Z,37824.00
2018-05-10T08:21:44.601Z,17792.00
2018-05-10T08:22:44.612Z,17504.00
2018-05-10T08:23:44.625Z,25824.00
2018-05-10T08:24:44.633Z,29024.00
2018-05-10T08:25:44.644Z,31424.00
2018-05-10T08:26:44.831Z,41440.00
2018-05-10T08:27:44.669Z,13060.00
2018-05-10T08:28:44.674Z,9740.00
2018-05-10T08:29:44.688Z,10652.00
2018-05-10T08:30:44.693Z,36832.00
2018-05-10T08:31:44.705Z,45120.00
2018-05-10T08:32:44.713Z,13040.00
2018-05-10T08:33:44.723Z,8760.00
2018-05-10T08:34:44.734Z,7016.00
2018-05-10T08:35:44.743Z,6540.00
2018-05-10T08:36:44.769Z,5112.00
2018-05-10T08:37:44.762Z,9968.00
2018-05-10T08:38:44.770Z,4544.00
2018-05-10T08:39:44.779Z,4680.00
2018-05-10T08:40:44.786Z,4136.00
2018-05-10T08:41:44.792Z,3316.00
2018-05-10T08:42:44.802Z,2712.00
2018-05-10T08:43:44.809Z,2324.00
2018-05-10T08:44:44.817Z,2108.00
2018-05-10T08:45:44.823Z,2068.00
2018-05-10T08:46:44.830Z,2112.00
2018-05-10T08:47:44.837Z,2164.00
2018-05-10T08:48:44.974Z,2292.00
2018-05-10T08:49:44.858Z,2508.00
2018-05-10T08:50:44.857Z,2600.00
2018-05-10T08:51:45.031Z,2680.00
2018-05-10T08:52:44.870Z,2832.00
2018-05-10T08:53:44.876Z,3200.00
2018-05-10T08:54:44.880Z,3812.00
2018-05-10T08:55:44.906Z,5056.00
2018-05-10T08:56:44.893Z,8140.00
2018-05-10T08:57:44.897Z,16096.00
2018-05-10T08:58:44.903Z,61664.00
2018-05-10T08:59:44.911Z,54592.00
2018-05-10T09:00:44.914Z,58624.00
2018-05-10T09:01:44.922Z,57792.00
2018-05-10T09:02:44.929Z,56000.00
2018-05-10T09:03:44.942Z,51712.00
2018-05-10T09:04:44.947Z,46080.00
2018-05-10T09:05:44.956Z,52800.00
2018-05-10T09:06:44.965Z,57440.00
2018-05-10T09:07:44.975Z,56032.00
2018-05-10T09:08:44.986Z,52416.00
2018-05-10T09:09:45.001Z,52928.00
2018-05-10T09:10:45.008Z,54048.00
2018-05-10T09:11:45.020Z,45952.00
2018-05-10T09:12:45.034Z,43936.00
2018-05-10T09:13:45.045Z,18336.00
2018-05-10T09:14:45.057Z,7580.00
2018-05-10T09:15:45.069Z,6360.00
2018-05-10T09:16:45.080Z,5844.00
2018-05-10T09:17:45.090Z,5572.00
2018-05-10T09:18:45.101Z,5744.00
2018-05-10T09:19:45.112Z,6232.00
2018-05-10T09:20:45.122Z,8152.00
2018-05-10T09:21:45.131Z,24160.00
2018-05-10T09:22:45.141Z,37888.00
2018-05-10T09:23:45.152Z,45376.00
2018-05-10T09:24:45.161Z,46688.00
2018-05-10T09:25:45.170Z,44896.00
2018-05-10T09:26:45.179Z,38784.00
2018-05-10T09:27:45.190Z,41024.00
2018-05-10T09:28:45.203Z,41664.00
2018-05-10T09:29:45.213Z,41920.00
2018-05-10T09:30:45.227Z,44128.00
2018-05-10T09:31:45.238Z,39264.00
2018-05-10T09:32:45.251Z,10696.00
2018-05-10T09:33:45.329Z,10936.00
2018-05-10T09:34:45.275Z,13652.00
2018-05-10T09:35:45.287Z,13388.00
2018-05-10T09:36:45.301Z,10360.00
2018-05-10T09:37:45.308Z,19104.00
2018-05-10T09:38:45.318Z,23264.00
2018-05-10T09:39:45.331Z,33120.00
2018-05-10T09:40:45.341Z,20544.00
2018-05-10T09:41:45.350Z,35680.00
2018-05-10T09:42:45.363Z,9864.00
2018-05-10T09:43:45.373Z,9164.00
2018-05-10T09:44:45.448Z,7416.00
2018-05-10T09:45:45.395Z,16064.00
2018-05-10T09:46:45.777Z,31136.00
2018-05-10T09:47:45.511Z,30240.00
2018-05-10T09:48:45.467Z,21120.00
2018-05-10T09:49:45.436Z,16928.00
2018-05-10T09:50:45.464Z,11448.00
2018-05-10T09:51:45.679Z,9564.00
2018-05-10T09:52:45.657Z,7284.00
2018-05-10T09:53:45.476Z,6972.00
2018-05-10T09:54:45.487Z,6380.00
2018-05-10T09:55:45.496Z,6696.00
2018-05-10T09:56:45.505Z,7360.00
2018-05-10T09:57:45.514Z,7400.00
2018-05-10T09:58:45.522Z,7144.00
2018-05-10T09:59:45.608Z,6736.00
2018-05-10T10:00:45.541Z,6292.00
2018-05-10T10:01:45.548Z,6232.00
2018-05-10T10:02:45.559Z,5888.00
2018-05-10T10:03:45.565Z,5976.00
2018-05-10T10:04:45.574Z,5840.00
2018-05-10T10:05:45.581Z,5768.00
2018-05-10T10:06:45.587Z,5560.00
2018-05-10T10:07:45.596Z,5284.00
2018-05-10T10:08:45.602Z,4924.00
2018-05-10T10:09:45.608Z,4516.00
2018-05-10T10:10:45.615Z,4076.00
2018-05-10T10:11:45.717Z,3748.00
2018-05-10T10:12:45.630Z,3504.00
2018-05-10T10:13:45.637Z,3284.00
2018-05-10T10:14:45.642Z,3120.00
2018-05-10T10:15:45.673Z,2992.00
2018-05-10T10:16:45.655Z,2904.00
2018-05-10T10:17:45.659Z,2852.00
2018-05-10T10:18:45.673Z,2860.00
2018-05-10T10:19:45.672Z,2932.00
2018-05-10T10:20:45.678Z,3044.00
2018-05-10T10:21:45.683Z,3168.00
2018-05-10T10:22:45.689Z,3212.00
2018-05-10T10:23:45.915Z,3184.00
2018-05-10T10:24:45.973Z,3172.00
2018-05-10T10:25:45.704Z,3148.00
2018-05-10T10:26:45.710Z,3132.00
2018-05-10T10:27:45.715Z,3120.00
2018-05-10T10:28:45.721Z,3160.00
2018-05-10T10:29:45.724Z,3232.00
2018-05-10T10:30:45.729Z,3316.00
2018-05-10T10:31:45.735Z,3364.00
2018-05-10T10:32:45.740Z,3376.00
2018-05-10T10:33:45.852Z,3304.00
2018-05-10T10:34:45.749Z,3184.00
2018-05-10T10:35:45.918Z,3104.00
2018-05-10T10:36:45.763Z,3080.00
2018-05-10T10:37:45.762Z,3092.00
2018-05-10T10:38:45.768Z,3088.00
2018-05-10T10:39:45.772Z,3012.00
2018-05-10T10:40:45.776Z,2912.00
2018-05-10T10:41:45.781Z,2856.00
2018-05-10T10:42:45.786Z,2848.00
2018-05-10T10:43:45.791Z,2900.00
2018-05-10T10:44:45.795Z,2944.00
2018-05-10T10:45:45.800Z,2992.00
2018-05-10T10:46:45.804Z,2996.00
2018-05-10T10:47:45.808Z,2928.00
2018-05-10T10:48:45.813Z,2756.00
2018-05-10T10:49:45.816Z,2648.00
2018-05-10T10:50:45.826Z,2604.00
2018-05-10T10:51:45.825Z,2568.00
2018-05-10T10:52:45.877Z,2556.00
2018-05-10T10:53:45.910Z,2536.00
2018-05-10T10:54:45.839Z,2512.00
2018-05-10T10:55:45.844Z,2484.00
2018-05-10T10:56:45.847Z,2516.00
2018-05-10T10:57:45.957Z,2568.00
2018-05-10T10:58:45.857Z,2628.00
2018-05-10T10:59:45.859Z,2680.00
2018-05-10T11:00:45.865Z,2672.00
2018-05-10T11:01:45.927Z,2612.00
2018-05-10T11:02:45.871Z,2592.00
2018-05-10T11:03:45.879Z,2668.00
2018-05-10T11:04:45.880Z,2724.00
2018-05-10T11:05:45.883Z,2724.00
2018-05-10T11:06:45.891Z,2752.00
2018-05-10T11:07:45.893Z,2804.00
2018-05-10T11:08:45.902Z,2976.00
2018-05-10T11:09:45.900Z,3232.00
2018-05-10T11:10:45.907Z,3576.00
2018-05-10T11:11:45.906Z,3948.00
2018-05-10T11:12:45.911Z,4388.00
2018-05-10T11:13:45.951Z,4828.00
2018-05-10T11:14:45.916Z,5304.00
2018-05-10T11:15:45.936Z,5756.00
2018-05-10T11:16:45.928Z,6264.00
2018-05-10T11:17:45.932Z,6816.00
2018-05-10T11:18:45.934Z,7668.00
2018-05-10T11:19:45.938Z,8568.00
2018-05-10T11:20:45.976Z,8804.00
2018-05-10T11:21:45.946Z,9816.00
2018-05-10T11:22:45.950Z,11108.00
2018-05-10T11:23:45.957Z,10500.00
2018-05-10T11:24:45.962Z,8820.00
2018-05-10T11:25:45.965Z,8884.00
2018-05-10T11:26:45.973Z,8460.00
2018-05-10T11:27:45.979Z,9640.00
2018-05-10T11:28:45.984Z,9188.00
2018-05-10T11:29:46.027Z,7848.00
2018-05-10T11:30:45.997Z,8116.00
2018-05-10T11:31:46.003Z,8060.00
2018-05-10T11:32:46.009Z,10228.00
2018-05-10T11:33:46.333Z,11592.00
2018-05-10T11:34:46.021Z,11564.00
2018-05-10T11:35:46.028Z,10248.00
2018-05-10T11:36:46.034Z,9844.00
2018-05-10T11:37:46.042Z,9308.00
2018-05-10T11:38:46.050Z,9732.00
2018-05-10T11:39:46.057Z,11408.00
2018-05-10T11:40:46.088Z,11700.00
2018-05-10T11:41:46.070Z,11376.00
2018-05-10T11:42:46.079Z,10784.00
2018-05-10T11:43:46.162Z,10400.00
2018-05-10T11:44:46.097Z,9964.00
2018-05-10T11:45:46.102Z,10252.00
2018-05-10T11:46:46.110Z,9888.00
2018-05-10T11:47:46.119Z,10176.00
2018-05-10T11:48:46.167Z,8408.00
2018-05-10T11:49:46.137Z,9660.00
2018-05-10T11:50:46.145Z,10628.00
2018-05-10T11:51:46.154Z,10152.00
2018-05-10T11:52:46.162Z,9476.00
2018-05-10T11:53:46.176Z,9524.00
2018-05-10T11:54:46.229Z,8380.00
2018-05-10T11:55:46.189Z,9544.00
2018-05-10T11:56:46.201Z,7524.00
2018-05-10T11:57:46.207Z,7152.00
2018-05-10T11:58:46.215Z,7780.00
2018-05-10T11:59:46.224Z,8180.00
2018-05-10T12:00:46.232Z,7556.00
2018-05-10T12:01:46.240Z,7072.00
2018-05-10T12:02:46.249Z,7332.00
2018-05-10T12:03:46.257Z,6560.00
2018-05-10T12:04:46.266Z,6384.00
2018-05-10T12:05:46.272Z,6704.00
2018-05-10T12:06:46.282Z,7220.00
2018-05-10T12:07:46.291Z,6884.00
2018-05-10T12:08:46.296Z,7468.00
2018-05-10T12:09:46.303Z,7608.00
2018-05-10T12:10:46.311Z,8108.00
2018-05-10T12:11:46.318Z,6984.00
2018-05-10T12:12:46.326Z,6772.00
2018-05-10T12:13:46.334Z,6424.00
2018-05-10T12:14:46.344Z,6720.00
2018-05-10T12:15:46.348Z,7276.00
2018-05-10T12:16:46.355Z,6620.00
2018-05-10T12:17:46.362Z,8164.00
2018-05-10T12:18:46.369Z,8660.00
2018-05-10T12:19:46.376Z,8652.00
2018-05-10T12:20:46.384Z,9104.00
2018-05-10T12:21:46.390Z,8908.00
2018-05-10T12:22:46.397Z,8592.00
2018-05-10T12:23:46.404Z,8068.00
2018-05-10T12:24:46.413Z,7432.00
2018-05-10T12:25:46.419Z,8460.00
2018-05-10T12:26:46.426Z,10264.00